sensor_id;sensor_type;location;lat;lon;timestamp;P1;durP1;ratioP1;P2;durP2;ratioP2
20073;SDS011;10197;54.282;10.078;2023-06-14T00:01:08;8.68;;;3.83;;
20073;SDS011;10197;54.282;10.078;2023-06-14T00:03:35;5.60;;;3.63;;
20073;SDS011;10197;54.282;10.078;2023-06-14T00:06:02;7.03;;;4.32;;
20073;SDS011;10197;54.282;10.078;2023-06-14T00:08:28;6.82;;;4.07;;
20073;SDS011;10197;54.282;10.078;2023-06-14T00:10:55;4.97;;;3.78;;
20073;SDS011;10197;54.282;10.078;2023-06-14T00:13:22;6.22;;;4.38;;
20073;SDS011;10197;54.282;10.078;2023-06-14T00:15:50;7.03;;;3.92;;
20073;SDS011;10197;54.282;10.078;2023-06-14T00:18:20;8.50;;;4.18;;
20073;SDS011;10197;54.282;10.078;2023-06-14T00:20:49;5.55;;;4.20;;
20073;SDS011;10197;54.282;10.078;2023-06-14T00:23:16;6.45;;;3.95;;
20073;SDS011;10197;54.282;10.078;2023-06-14T00:25:43;7.55;;;4.18;;
20073;SDS011;10197;54.282;10.078;2023-06-14T00:28:10;11.45;;;4.85;;
20073;SDS011;10197;54.282;10.078;2023-06-14T00:30:37;8.50;;;4.55;;
20073;SDS011;10197;54.282;10.078;2023-06-14T00:33:05;7.10;;;4.25;;
20073;SDS011;10197;54.282;10.078;2023-06-14T00:35:32;6.63;;;4.60;;
20073;SDS011;10197;54.282;10.078;2023-06-14T00:37:59;7.18;;;5.13;;
20073;SDS011;10197;54.282;10.078;2023-06-14T00:40:26;7.68;;;4.38;;
20073;SDS011;10197;54.282;10.078;2023-06-14T00:42:53;7.05;;;4.40;;
20073;SDS011;10197;54.282;10.078;2023-06-14T00:45:21;6.47;;;3.83;;
20073;SDS011;10197;54.282;10.078;2023-06-14T00:47:47;9.18;;;5.20;;
20073;SDS011;10197;54.282;10.078;2023-06-14T00:50:19;6.65;;;5.00;;
20073;SDS011;10197;54.282;10.078;2023-06-14T00:52:47;6.75;;;4.95;;
20073;SDS011;10197;54.282;10.078;2023-06-14T00:55:14;7.65;;;4.25;;
20073;SDS011;10197;54.282;10.078;2023-06-14T00:57:41;7.57;;;4.22;;
20073;SDS011;10197;54.282;10.078;2023-06-14T01:00:08;8.38;;;4.97;;
20073;SDS011;10197;54.282;10.078;2023-06-14T01:02:37;8.57;;;4.72;;
20073;SDS011;10197;54.282;10.078;2023-06-14T01:05:07;7.82;;;4.90;;
20073;SDS011;10197;54.282;10.078;2023-06-14T01:07:40;9.30;;;5.00;;
20073;SDS011;10197;54.282;10.078;2023-06-14T01:10:20;6.43;;;4.68;;
20073;SDS011;10197;54.282;10.078;2023-06-14T01:12:54;10.30;;;4.78;;
20073;SDS011;10197;54.282;10.078;2023-06-14T01:15:25;8.95;;;5.30;;
20073;SDS011;10197;54.282;10.078;2023-06-14T01:17:53;8.30;;;4.97;;
20073;SDS011;10197;54.282;10.078;2023-06-14T01:20:28;10.82;;;5.97;;
20073;SDS011;10197;54.282;10.078;2023-06-14T01:22:57;10.93;;;5.05;;
20073;SDS011;10197;54.282;10.078;2023-06-14T01:25:24;5.85;;;4.50;;
20073;SDS011;10197;54.282;10.078;2023-06-14T01:27:53;10.30;;;5.78;;
20073;SDS011;10197;54.282;10.078;2023-06-14T01:30:24;10.80;;;5.47;;
20073;SDS011;10197;54.282;10.078;2023-06-14T01:32:51;7.80;;;5.05;;
20073;SDS011;10197;54.282;10.078;2023-06-14T01:35:20;8.23;;;5.15;;
20073;SDS011;10197;54.282;10.078;2023-06-14T01:37:47;8.45;;;5.78;;
20073;SDS011;10197;54.282;10.078;2023-06-14T01:40:16;10.85;;;5.43;;
20073;SDS011;10197;54.282;10.078;2023-06-14T01:42:44;7.93;;;5.32;;
20073;SDS011;10197;54.282;10.078;2023-06-14T01:45:13;8.07;;;5.38;;
20073;SDS011;10197;54.282;10.078;2023-06-14T01:47:40;11.63;;;5.95;;
20073;SDS011;10197;54.282;10.078;2023-06-14T01:50:08;11.98;;;5.88;;
20073;SDS011;10197;54.282;10.078;2023-06-14T01:52:36;8.48;;;5.53;;
20073;SDS011;10197;54.282;10.078;2023-06-14T01:55:03;11.90;;;5.75;;
20073;SDS011;10197;54.282;10.078;2023-06-14T01:57:32;8.68;;;5.32;;
20073;SDS011;10197;54.282;10.078;2023-06-14T01:59:59;7.40;;;5.30;;
20073;SDS011;10197;54.282;10.078;2023-06-14T02:02:25;9.05;;;5.60;;
20073;SDS011;10197;54.282;10.078;2023-06-14T02:04:52;7.88;;;5.00;;
20073;SDS011;10197;54.282;10.078;2023-06-14T02:07:22;8.18;;;4.82;;
20073;SDS011;10197;54.282;10.078;2023-06-14T02:09:50;11.05;;;5.80;;
20073;SDS011;10197;54.282;10.078;2023-06-14T02:12:17;8.15;;;5.60;;
20073;SDS011;10197;54.282;10.078;2023-06-14T02:14:45;8.85;;;5.45;;
20073;SDS011;10197;54.282;10.078;2023-06-14T02:17:13;8.63;;;4.70;;
20073;SDS011;10197;54.282;10.078;2023-06-14T02:19:41;7.72;;;5.38;;
20073;SDS011;10197;54.282;10.078;2023-06-14T02:22:08;8.90;;;5.03;;
20073;SDS011;10197;54.282;10.078;2023-06-14T02:24:35;11.65;;;5.45;;
20073;SDS011;10197;54.282;10.078;2023-06-14T02:27:06;8.77;;;5.25;;
20073;SDS011;10197;54.282;10.078;2023-06-14T02:29:35;6.43;;;4.63;;
20073;SDS011;10197;54.282;10.078;2023-06-14T02:32:04;9.57;;;5.10;;
20073;SDS011;10197;54.282;10.078;2023-06-14T02:34:32;7.82;;;4.78;;
20073;SDS011;10197;54.282;10.078;2023-06-14T02:36:59;8.80;;;5.00;;
20073;SDS011;10197;54.282;10.078;2023-06-14T02:39:28;7.30;;;4.47;;
20073;SDS011;10197;54.282;10.078;2023-06-14T02:41:54;9.25;;;5.72;;
20073;SDS011;10197;54.282;10.078;2023-06-14T02:44:24;7.40;;;4.85;;
20073;SDS011;10197;54.282;10.078;2023-06-14T02:46:51;8.07;;;5.55;;
20073;SDS011;10197;54.282;10.078;2023-06-14T02:49:19;7.20;;;4.68;;
20073;SDS011;10197;54.282;10.078;2023-06-14T02:51:46;9.02;;;4.82;;
20073;SDS011;10197;54.282;10.078;2023-06-14T02:54:14;9.50;;;5.10;;
20073;SDS011;10197;54.282;10.078;2023-06-14T02:56:41;7.97;;;4.88;;
20073;SDS011;10197;54.282;10.078;2023-06-14T02:59:08;6.85;;;4.82;;
20073;SDS011;10197;54.282;10.078;2023-06-14T03:01:36;5.78;;;4.43;;
20073;SDS011;10197;54.282;10.078;2023-06-14T03:04:06;6.43;;;4.90;;
20073;SDS011;10197;54.282;10.078;2023-06-14T03:06:37;7.28;;;4.72;;
20073;SDS011;10197;54.282;10.078;2023-06-14T03:09:05;8.23;;;4.85;;
20073;SDS011;10197;54.282;10.078;2023-06-14T03:11:36;6.85;;;4.47;;
20073;SDS011;10197;54.282;10.078;2023-06-14T03:14:04;5.30;;;4.60;;
20073;SDS011;10197;54.282;10.078;2023-06-14T03:16:32;8.02;;;4.88;;
20073;SDS011;10197;54.282;10.078;2023-06-14T03:19:00;8.80;;;4.85;;
20073;SDS011;10197;54.282;10.078;2023-06-14T03:21:30;6.85;;;4.35;;
20073;SDS011;10197;54.282;10.078;2023-06-14T03:24:01;7.68;;;4.40;;
20073;SDS011;10197;54.282;10.078;2023-06-14T03:26:29;6.53;;;4.78;;
20073;SDS011;10197;54.282;10.078;2023-06-14T03:29:00;6.50;;;4.32;;
20073;SDS011;10197;54.282;10.078;2023-06-14T03:31:28;6.38;;;4.15;;
20073;SDS011;10197;54.282;10.078;2023-06-14T03:33:58;9.15;;;5.00;;
20073;SDS011;10197;54.282;10.078;2023-06-14T03:36:26;6.38;;;5.00;;
20073;SDS011;10197;54.282;10.078;2023-06-14T03:38:54;5.85;;;4.80;;
20073;SDS011;10197;54.282;10.078;2023-06-14T03:41:23;5.25;;;4.72;;
20073;SDS011;10197;54.282;10.078;2023-06-14T03:43:53;7.40;;;4.95;;
20073;SDS011;10197;54.282;10.078;2023-06-14T03:46:20;8.50;;;4.85;;
20073;SDS011;10197;54.282;10.078;2023-06-14T03:48:47;7.15;;;4.70;;
20073;SDS011;10197;54.282;10.078;2023-06-14T03:51:14;7.93;;;4.88;;
20073;SDS011;10197;54.282;10.078;2023-06-14T03:53:42;8.52;;;4.53;;
20073;SDS011;10197;54.282;10.078;2023-06-14T03:56:09;7.18;;;4.82;;
20073;SDS011;10197;54.282;10.078;2023-06-14T03:58:43;6.88;;;4.60;;
20073;SDS011;10197;54.282;10.078;2023-06-14T04:01:09;7.07;;;5.00;;
20073;SDS011;10197;54.282;10.078;2023-06-14T04:03:38;8.73;;;5.43;;
20073;SDS011;10197;54.282;10.078;2023-06-14T04:06:05;6.75;;;5.15;;
20073;SDS011;10197;54.282;10.078;2023-06-14T04:08:33;7.82;;;5.22;;
20073;SDS011;10197;54.282;10.078;2023-06-14T04:11:00;8.23;;;4.68;;
20073;SDS011;10197;54.282;10.078;2023-06-14T04:13:27;7.30;;;4.47;;
20073;SDS011;10197;54.282;10.078;2023-06-14T04:15:55;9.65;;;5.40;;
20073;SDS011;10197;54.282;10.078;2023-06-14T04:18:28;9.57;;;4.72;;
20073;SDS011;10197;54.282;10.078;2023-06-14T04:20:57;8.43;;;4.95;;
20073;SDS011;10197;54.282;10.078;2023-06-14T04:23:26;6.03;;;4.57;;
20073;SDS011;10197;54.282;10.078;2023-06-14T04:25:54;5.93;;;4.50;;
20073;SDS011;10197;54.282;10.078;2023-06-14T04:28:27;9.85;;;6.28;;
20073;SDS011;10197;54.282;10.078;2023-06-14T04:30:59;9.90;;;5.93;;
20073;SDS011;10197;54.282;10.078;2023-06-14T04:33:30;9.10;;;4.63;;
20073;SDS011;10197;54.282;10.078;2023-06-14T04:35:57;7.38;;;5.32;;
20073;SDS011;10197;54.282;10.078;2023-06-14T04:38:25;7.20;;;5.22;;
20073;SDS011;10197;54.282;10.078;2023-06-14T04:40:54;9.10;;;4.57;;
20073;SDS011;10197;54.282;10.078;2023-06-14T04:43:23;9.23;;;4.88;;
20073;SDS011;10197;54.282;10.078;2023-06-14T04:45:51;8.02;;;4.00;;
20073;SDS011;10197;54.282;10.078;2023-06-14T04:48:21;8.82;;;4.70;;
20073;SDS011;10197;54.282;10.078;2023-06-14T04:50:48;11.95;;;6.53;;
20073;SDS011;10197;54.282;10.078;2023-06-14T04:53:18;12.32;;;7.43;;
20073;SDS011;10197;54.282;10.078;2023-06-14T04:55:49;11.73;;;7.00;;
20073;SDS011;10197;54.282;10.078;2023-06-14T04:58:18;6.40;;;4.60;;
20073;SDS011;10197;54.282;10.078;2023-06-14T05:00:46;7.80;;;5.22;;
20073;SDS011;10197;54.282;10.078;2023-06-14T05:03:13;10.85;;;5.25;;
20073;SDS011;10197;54.282;10.078;2023-06-14T05:05:42;6.68;;;4.50;;
20073;SDS011;10197;54.282;10.078;2023-06-14T05:08:10;8.20;;;4.80;;
20073;SDS011;10197;54.282;10.078;2023-06-14T05:10:38;8.70;;;4.15;;
20073;SDS011;10197;54.282;10.078;2023-06-14T05:13:05;11.63;;;4.78;;
20073;SDS011;10197;54.282;10.078;2023-06-14T05:15:31;8.00;;;4.35;;
20073;SDS011;10197;54.282;10.078;2023-06-14T05:17:59;9.93;;;4.65;;
20073;SDS011;10197;54.282;10.078;2023-06-14T05:20:26;7.15;;;4.80;;
20073;SDS011;10197;54.282;10.078;2023-06-14T05:22:55;10.57;;;5.78;;
20073;SDS011;10197;54.282;10.078;2023-06-14T05:25:23;10.30;;;5.30;;
20073;SDS011;10197;54.282;10.078;2023-06-14T05:27:50;10.40;;;4.90;;
20073;SDS011;10197;54.282;10.078;2023-06-14T05:30:17;6.30;;;4.28;;
20073;SDS011;10197;54.282;10.078;2023-06-14T05:32:43;5.20;;;3.70;;
20073;SDS011;10197;54.282;10.078;2023-06-14T05:35:12;6.90;;;4.05;;
20073;SDS011;10197;54.282;10.078;2023-06-14T05:37:39;9.95;;;4.65;;
20073;SDS011;10197;54.282;10.078;2023-06-14T05:40:09;8.23;;;4.03;;
20073;SDS011;10197;54.282;10.078;2023-06-14T05:42:36;8.60;;;4.35;;
20073;SDS011;10197;54.282;10.078;2023-06-14T05:45:04;6.65;;;4.10;;
20073;SDS011;10197;54.282;10.078;2023-06-14T05:47:32;9.77;;;4.43;;
20073;SDS011;10197;54.282;10.078;2023-06-14T05:49:58;12.65;;;7.57;;
20073;SDS011;10197;54.282;10.078;2023-06-14T05:52:25;8.35;;;5.55;;
20073;SDS011;10197;54.282;10.078;2023-06-14T05:54:53;6.07;;;4.40;;
20073;SDS011;10197;54.282;10.078;2023-06-14T05:57:21;8.45;;;4.70;;
20073;SDS011;10197;54.282;10.078;2023-06-14T05:59:48;6.50;;;4.43;;
20073;SDS011;10197;54.282;10.078;2023-06-14T06:02:15;4.97;;;3.67;;
20073;SDS011;10197;54.282;10.078;2023-06-14T06:04:42;6.18;;;4.00;;
20073;SDS011;10197;54.282;10.078;2023-06-14T06:07:09;8.43;;;3.70;;
20073;SDS011;10197;54.282;10.078;2023-06-14T06:09:36;6.75;;;4.25;;
20073;SDS011;10197;54.282;10.078;2023-06-14T06:12:05;7.43;;;4.05;;
20073;SDS011;10197;54.282;10.078;2023-06-14T06:14:34;12.00;;;5.00;;
20073;SDS011;10197;54.282;10.078;2023-06-14T06:17:01;7.40;;;4.40;;
20073;SDS011;10197;54.282;10.078;2023-06-14T06:19:28;8.00;;;4.05;;
20073;SDS011;10197;54.282;10.078;2023-06-14T06:21:55;4.95;;;3.65;;
20073;SDS011;10197;54.282;10.078;2023-06-14T06:24:22;4.50;;;3.50;;
20073;SDS011;10197;54.282;10.078;2023-06-14T06:26:49;8.13;;;3.50;;
20073;SDS011;10197;54.282;10.078;2023-06-14T06:29:15;11.70;;;4.22;;
20073;SDS011;10197;54.282;10.078;2023-06-14T06:31:44;9.60;;;3.97;;
20073;SDS011;10197;54.282;10.078;2023-06-14T06:34:12;5.93;;;4.10;;
20073;SDS011;10197;54.282;10.078;2023-06-14T06:36:38;8.48;;;3.92;;
20073;SDS011;10197;54.282;10.078;2023-06-14T06:39:05;8.68;;;4.65;;
20073;SDS011;10197;54.282;10.078;2023-06-14T06:41:35;6.53;;;3.70;;
20073;SDS011;10197;54.282;10.078;2023-06-14T06:44:03;8.40;;;4.00;;
20073;SDS011;10197;54.282;10.078;2023-06-14T06:46:32;6.25;;;3.05;;
20073;SDS011;10197;54.282;10.078;2023-06-14T06:49:01;6.65;;;3.72;;
20073;SDS011;10197;54.282;10.078;2023-06-14T06:51:28;5.20;;;3.47;;
20073;SDS011;10197;54.282;10.078;2023-06-14T06:53:55;6.53;;;4.05;;
20073;SDS011;10197;54.282;10.078;2023-06-14T06:56:22;5.60;;;3.20;;
20073;SDS011;10197;54.282;10.078;2023-06-14T06:58:49;7.00;;;3.72;;
20073;SDS011;10197;54.282;10.078;2023-06-14T07:01:23;6.97;;;3.75;;
20073;SDS011;10197;54.282;10.078;2023-06-14T07:04:23;6.55;;;3.70;;
20073;SDS011;10197;54.282;10.078;2023-06-14T07:06:50;8.48;;;5.07;;
20073;SDS011;10197;54.282;10.078;2023-06-14T07:09:17;7.38;;;4.88;;
20073;SDS011;10197;54.282;10.078;2023-06-14T07:11:46;5.40;;;4.22;;
20073;SDS011;10197;54.282;10.078;2023-06-14T07:14:14;6.28;;;4.55;;
20073;SDS011;10197;54.282;10.078;2023-06-14T07:16:41;6.15;;;4.15;;
20073;SDS011;10197;54.282;10.078;2023-06-14T07:19:08;5.30;;;3.20;;
20073;SDS011;10197;54.282;10.078;2023-06-14T07:21:36;5.63;;;3.95;;
20073;SDS011;10197;54.282;10.078;2023-06-14T07:24:04;8.13;;;3.67;;
20073;SDS011;10197;54.282;10.078;2023-06-14T07:26:31;5.63;;;3.65;;
20073;SDS011;10197;54.282;10.078;2023-06-14T07:28:58;8.60;;;4.47;;
20073;SDS011;10197;54.282;10.078;2023-06-14T07:31:25;5.50;;;4.00;;
20073;SDS011;10197;54.282;10.078;2023-06-14T07:33:52;5.50;;;3.60;;
20073;SDS011;10197;54.282;10.078;2023-06-14T07:36:19;6.35;;;3.40;;
20073;SDS011;10197;54.282;10.078;2023-06-14T07:38:47;6.40;;;3.80;;
20073;SDS011;10197;54.282;10.078;2023-06-14T07:41:15;7.75;;;3.58;;
20073;SDS011;10197;54.282;10.078;2023-06-14T07:43:42;6.85;;;3.20;;
20073;SDS011;10197;54.282;10.078;2023-06-14T07:46:09;7.65;;;4.22;;
20073;SDS011;10197;54.282;10.078;2023-06-14T07:48:36;7.28;;;3.63;;
20073;SDS011;10197;54.282;10.078;2023-06-14T07:51:03;9.40;;;4.70;;
20073;SDS011;10197;54.282;10.078;2023-06-14T07:53:30;8.27;;;5.35;;
20073;SDS011;10197;54.282;10.078;2023-06-14T07:55:59;5.18;;;4.40;;
20073;SDS011;10197;54.282;10.078;2023-06-14T07:58:26;7.13;;;4.45;;
20073;SDS011;10197;54.282;10.078;2023-06-14T08:00:53;5.18;;;3.90;;
20073;SDS011;10197;54.282;10.078;2023-06-14T08:03:20;8.88;;;4.18;;
20073;SDS011;10197;54.282;10.078;2023-06-14T08:05:47;5.78;;;3.65;;
20073;SDS011;10197;54.282;10.078;2023-06-14T08:08:17;6.38;;;3.70;;
20073;SDS011;10197;54.282;10.078;2023-06-14T08:10:44;5.93;;;3.92;;
20073;SDS011;10197;54.282;10.078;2023-06-14T08:13:15;4.38;;;3.40;;
20073;SDS011;10197;54.282;10.078;2023-06-14T08:15:42;4.50;;;3.40;;
20073;SDS011;10197;54.282;10.078;2023-06-14T08:18:09;6.32;;;3.75;;
20073;SDS011;10197;54.282;10.078;2023-06-14T08:20:37;5.93;;;3.80;;
20073;SDS011;10197;54.282;10.078;2023-06-14T08:23:05;5.72;;;3.15;;
20073;SDS011;10197;54.282;10.078;2023-06-14T08:25:33;6.10;;;3.50;;
20073;SDS011;10197;54.282;10.078;2023-06-14T08:28:00;9.57;;;3.60;;
20073;SDS011;10197;54.282;10.078;2023-06-14T08:30:30;8.38;;;4.25;;
20073;SDS011;10197;54.282;10.078;2023-06-14T08:32:56;5.40;;;3.20;;
20073;SDS011;10197;54.282;10.078;2023-06-14T08:35:23;5.20;;;3.42;;
20073;SDS011;10197;54.282;10.078;2023-06-14T08:37:50;6.80;;;3.65;;
20073;SDS011;10197;54.282;10.078;2023-06-14T08:40:18;4.70;;;3.42;;
20073;SDS011;10197;54.282;10.078;2023-06-14T08:42:47;7.47;;;3.80;;
20073;SDS011;10197;54.282;10.078;2023-06-14T08:45:16;3.90;;;3.20;;
20073;SDS011;10197;54.282;10.078;2023-06-14T08:47:45;4.95;;;3.45;;
20073;SDS011;10197;54.282;10.078;2023-06-14T08:50:16;4.60;;;3.15;;
20073;SDS011;10197;54.282;10.078;2023-06-14T08:52:45;5.60;;;3.40;;
20073;SDS011;10197;54.282;10.078;2023-06-14T08:55:16;5.72;;;3.40;;
20073;SDS011;10197;54.282;10.078;2023-06-14T08:57:45;7.78;;;3.50;;
20073;SDS011;10197;54.282;10.078;2023-06-14T09:00:13;5.65;;;3.50;;
20073;SDS011;10197;54.282;10.078;2023-06-14T09:02:40;7.35;;;3.70;;
20073;SDS011;10197;54.282;10.078;2023-06-14T09:05:10;8.05;;;3.08;;
20073;SDS011;10197;54.282;10.078;2023-06-14T09:07:38;7.82;;;3.63;;
20073;SDS011;10197;54.282;10.078;2023-06-14T09:10:07;8.48;;;3.50;;
20073;SDS011;10197;54.282;10.078;2023-06-14T09:12:36;7.28;;;3.35;;
20073;SDS011;10197;54.282;10.078;2023-06-14T09:15:03;6.55;;;2.97;;
20073;SDS011;10197;54.282;10.078;2023-06-14T09:17:34;8.35;;;3.40;;
20073;SDS011;10197;54.282;10.078;2023-06-14T09:20:02;5.18;;;2.90;;
20073;SDS011;10197;54.282;10.078;2023-06-14T09:22:35;7.35;;;3.55;;
20073;SDS011;10197;54.282;10.078;2023-06-14T09:25:05;5.75;;;3.40;;
20073;SDS011;10197;54.282;10.078;2023-06-14T09:27:32;6.53;;;3.47;;
20073;SDS011;10197;54.282;10.078;2023-06-14T09:30:01;8.52;;;3.20;;
20073;SDS011;10197;54.282;10.078;2023-06-14T09:32:29;5.18;;;3.20;;
20073;SDS011;10197;54.282;10.078;2023-06-14T09:34:55;4.72;;;3.40;;
20073;SDS011;10197;54.282;10.078;2023-06-14T09:37:27;7.40;;;3.53;;
20073;SDS011;10197;54.282;10.078;2023-06-14T09:39:57;4.78;;;2.67;;
20073;SDS011;10197;54.282;10.078;2023-06-14T09:42:24;3.92;;;3.25;;
20073;SDS011;10197;54.282;10.078;2023-06-14T09:44:53;7.15;;;3.60;;
20073;SDS011;10197;54.282;10.078;2023-06-14T09:47:21;8.40;;;3.65;;
20073;SDS011;10197;54.282;10.078;2023-06-14T09:49:48;4.88;;;3.10;;
20073;SDS011;10197;54.282;10.078;2023-06-14T09:52:16;6.97;;;3.13;;
20073;SDS011;10197;54.282;10.078;2023-06-14T09:54:44;7.72;;;3.40;;
20073;SDS011;10197;54.282;10.078;2023-06-14T09:57:15;4.38;;;3.10;;
20073;SDS011;10197;54.282;10.078;2023-06-14T09:59:43;5.75;;;3.05;;
20073;SDS011;10197;54.282;10.078;2023-06-14T10:02:11;4.13;;;3.10;;
20073;SDS011;10197;54.282;10.078;2023-06-14T10:04:46;8.00;;;2.78;;
20073;SDS011;10197;54.282;10.078;2023-06-14T10:07:18;5.32;;;3.30;;
20073;SDS011;10197;54.282;10.078;2023-06-14T10:09:46;3.97;;;3.03;;
20073;SDS011;10197;54.282;10.078;2023-06-14T10:12:17;7.38;;;2.95;;
20073;SDS011;10197;54.282;10.078;2023-06-14T10:14:47;4.10;;;3.10;;
20073;SDS011;10197;54.282;10.078;2023-06-14T10:17:17;5.75;;;2.70;;
20073;SDS011;10197;54.282;10.078;2023-06-14T10:19:50;5.55;;;3.10;;
20073;SDS011;10197;54.282;10.078;2023-06-14T10:22:21;4.15;;;3.10;;
20073;SDS011;10197;54.282;10.078;2023-06-14T10:24:50;3.58;;;2.55;;
20073;SDS011;10197;54.282;10.078;2023-06-14T10:27:18;5.47;;;2.80;;
20073;SDS011;10197;54.282;10.078;2023-06-14T10:30:04;4.53;;;3.15;;
20073;SDS011;10197;54.282;10.078;2023-06-14T10:32:33;4.70;;;2.90;;
20073;SDS011;10197;54.282;10.078;2023-06-14T10:35:00;5.82;;;3.03;;
20073;SDS011;10197;54.282;10.078;2023-06-14T10:37:32;5.07;;;2.55;;
20073;SDS011;10197;54.282;10.078;2023-06-14T10:39:59;5.13;;;2.80;;
20073;SDS011;10197;54.282;10.078;2023-06-14T10:42:32;4.50;;;2.65;;
20073;SDS011;10197;54.282;10.078;2023-06-14T10:45:00;5.30;;;3.17;;
20073;SDS011;10197;54.282;10.078;2023-06-14T10:47:27;4.93;;;3.08;;
20073;SDS011;10197;54.282;10.078;2023-06-14T10:49:55;7.43;;;2.80;;
20073;SDS011;10197;54.282;10.078;2023-06-14T10:52:25;5.45;;;2.78;;
20073;SDS011;10197;54.282;10.078;2023-06-14T10:57:42;6.95;;;2.55;;
20073;SDS011;10197;54.282;10.078;2023-06-14T11:00:11;6.45;;;2.67;;
20073;SDS011;10197;54.282;10.078;2023-06-14T11:05:50;6.65;;;2.67;;
20073;SDS011;10197;54.282;10.078;2023-06-14T11:08:33;8.68;;;3.10;;
20073;SDS011;10197;54.282;10.078;2023-06-14T11:11:07;5.65;;;3.08;;
20073;SDS011;10197;54.282;10.078;2023-06-14T11:13:38;8.75;;;2.80;;
20073;SDS011;10197;54.282;10.078;2023-06-14T11:16:09;4.13;;;2.72;;
20073;SDS011;10197;54.282;10.078;2023-06-14T11:18:37;5.82;;;2.60;;
20073;SDS011;10197;54.282;10.078;2023-06-14T11:21:04;4.60;;;2.42;;
20073;SDS011;10197;54.282;10.078;2023-06-14T11:23:31;3.05;;;2.50;;
20073;SDS011;10197;54.282;10.078;2023-06-14T11:25:58;6.18;;;3.15;;
20073;SDS011;10197;54.282;10.078;2023-06-14T11:28:34;4.25;;;2.85;;
20073;SDS011;10197;54.282;10.078;2023-06-14T11:31:04;3.38;;;2.78;;
20073;SDS011;10197;54.282;10.078;2023-06-14T11:33:31;7.30;;;2.47;;
20073;SDS011;10197;54.282;10.078;2023-06-14T11:35:58;5.15;;;2.67;;
20073;SDS011;10197;54.282;10.078;2023-06-14T11:38:25;4.97;;;2.80;;
20073;SDS011;10197;54.282;10.078;2023-06-14T11:40:59;9.55;;;2.97;;
20073;SDS011;10197;54.282;10.078;2023-06-14T11:43:29;7.55;;;2.58;;
20073;SDS011;10197;54.282;10.078;2023-06-14T11:45:58;4.97;;;2.60;;
20073;SDS011;10197;54.282;10.078;2023-06-14T11:48:36;2.97;;;2.10;;
20073;SDS011;10197;54.282;10.078;2023-06-14T11:51:07;5.68;;;2.90;;
20073;SDS011;10197;54.282;10.078;2023-06-14T11:53:34;5.45;;;2.70;;
20073;SDS011;10197;54.282;10.078;2023-06-14T11:56:01;5.55;;;2.80;;
20073;SDS011;10197;54.282;10.078;2023-06-14T11:58:29;5.22;;;2.78;;
20073;SDS011;10197;54.282;10.078;2023-06-14T12:00:56;6.13;;;3.05;;
20073;SDS011;10197;54.282;10.078;2023-06-14T12:03:23;4.93;;;2.60;;
20073;SDS011;10197;54.282;10.078;2023-06-14T12:06:03;7.30;;;2.92;;
20073;SDS011;10197;54.282;10.078;2023-06-14T12:08:35;6.93;;;2.97;;
20073;SDS011;10197;54.282;10.078;2023-06-14T12:11:05;6.57;;;2.55;;
20073;SDS011;10197;54.282;10.078;2023-06-14T12:13:37;5.72;;;2.70;;
20073;SDS011;10197;54.282;10.078;2023-06-14T12:16:08;5.18;;;2.90;;
20073;SDS011;10197;54.282;10.078;2023-06-14T12:18:36;4.63;;;2.78;;
20073;SDS011;10197;54.282;10.078;2023-06-14T12:21:06;5.55;;;3.13;;
20073;SDS011;10197;54.282;10.078;2023-06-14T12:23:39;6.45;;;3.75;;
20073;SDS011;10197;54.282;10.078;2023-06-14T12:26:09;6.45;;;2.83;;
20073;SDS011;10197;54.282;10.078;2023-06-14T12:28:36;7.97;;;3.30;;
20073;SDS011;10197;54.282;10.078;2023-06-14T12:31:03;4.60;;;2.38;;
20073;SDS011;10197;54.282;10.078;2023-06-14T12:33:31;4.70;;;2.65;;
20073;SDS011;10197;54.282;10.078;2023-06-14T12:35:58;4.82;;;2.53;;
20073;SDS011;10197;54.282;10.078;2023-06-14T12:38:26;6.95;;;2.70;;
20073;SDS011;10197;54.282;10.078;2023-06-14T12:40:53;5.18;;;3.13;;
20073;SDS011;10197;54.282;10.078;2023-06-14T12:43:20;6.88;;;2.80;;
20073;SDS011;10197;54.282;10.078;2023-06-14T12:45:52;2.97;;;2.72;;
20073;SDS011;10197;54.282;10.078;2023-06-14T12:48:20;5.13;;;2.88;;
20073;SDS011;10197;54.282;10.078;2023-06-14T12:50:47;3.38;;;2.63;;
20073;SDS011;10197;54.282;10.078;2023-06-14T12:53:14;6.55;;;2.58;;
20073;SDS011;10197;54.282;10.078;2023-06-14T12:55:42;5.10;;;2.75;;
20073;SDS011;10197;54.282;10.078;2023-06-14T12:58:09;4.40;;;2.83;;
20073;SDS011;10197;54.282;10.078;2023-06-14T13:00:37;5.13;;;2.72;;
20073;SDS011;10197;54.282;10.078;2023-06-14T13:03:04;4.38;;;3.03;;
20073;SDS011;10197;54.282;10.078;2023-06-14T13:05:31;2.85;;;2.35;;
20073;SDS011;10197;54.282;10.078;2023-06-14T13:07:59;3.22;;;2.65;;
20073;SDS011;10197;54.282;10.078;2023-06-14T13:10:27;7.00;;;2.78;;
20073;SDS011;10197;54.282;10.078;2023-06-14T13:12:55;4.22;;;2.75;;
20073;SDS011;10197;54.282;10.078;2023-06-14T13:15:25;3.17;;;2.50;;
20073;SDS011;10197;54.282;10.078;2023-06-14T13:17:52;5.13;;;2.40;;
20073;SDS011;10197;54.282;10.078;2023-06-14T13:20:19;5.13;;;2.75;;
20073;SDS011;10197;54.282;10.078;2023-06-14T13:22:46;3.67;;;2.70;;
20073;SDS011;10197;54.282;10.078;2023-06-14T13:25:12;3.03;;;2.47;;
20073;SDS011;10197;54.282;10.078;2023-06-14T13:27:39;5.32;;;2.88;;
20073;SDS011;10197;54.282;10.078;2023-06-14T13:30:08;5.25;;;2.85;;
20073;SDS011;10197;54.282;10.078;2023-06-14T13:32:36;5.38;;;2.50;;
20073;SDS011;10197;54.282;10.078;2023-06-14T13:35:03;4.53;;;2.83;;
20073;SDS011;10197;54.282;10.078;2023-06-14T13:37:31;6.68;;;2.75;;
20073;SDS011;10197;54.282;10.078;2023-06-14T13:39:58;4.38;;;2.70;;
20073;SDS011;10197;54.282;10.078;2023-06-14T13:42:25;5.65;;;2.72;;
20073;SDS011;10197;54.282;10.078;2023-06-14T13:44:52;4.43;;;2.90;;
20073;SDS011;10197;54.282;10.078;2023-06-14T13:47:20;5.70;;;3.10;;
20073;SDS011;10197;54.282;10.078;2023-06-14T13:49:47;3.58;;;2.60;;
20073;SDS011;10197;54.282;10.078;2023-06-14T13:52:14;4.30;;;2.88;;
20073;SDS011;10197;54.282;10.078;2023-06-14T13:54:41;3.17;;;2.63;;
20073;SDS011;10197;54.282;10.078;2023-06-14T13:57:08;5.82;;;2.85;;
20073;SDS011;10197;54.282;10.078;2023-06-14T13:59:38;4.72;;;3.03;;
20073;SDS011;10197;54.282;10.078;2023-06-14T14:02:05;5.20;;;2.70;;
20073;SDS011;10197;54.282;10.078;2023-06-14T14:04:33;6.20;;;2.95;;
20073;SDS011;10197;54.282;10.078;2023-06-14T14:07:01;6.07;;;2.72;;
20073;SDS011;10197;54.282;10.078;2023-06-14T14:09:28;4.15;;;2.80;;
20073;SDS011;10197;54.282;10.078;2023-06-14T14:11:55;4.97;;;2.80;;
20073;SDS011;10197;54.282;10.078;2023-06-14T14:14:22;3.42;;;2.67;;
20073;SDS011;10197;54.282;10.078;2023-06-14T14:16:50;6.10;;;2.88;;
20073;SDS011;10197;54.282;10.078;2023-06-14T14:19:18;3.58;;;2.60;;
20073;SDS011;10197;54.282;10.078;2023-06-14T14:21:47;6.45;;;3.35;;
20073;SDS011;10197;54.282;10.078;2023-06-14T14:24:13;6.00;;;3.08;;
20073;SDS011;10197;54.282;10.078;2023-06-14T14:26:41;3.53;;;2.80;;
20073;SDS011;10197;54.282;10.078;2023-06-14T14:29:08;8.25;;;3.05;;
20073;SDS011;10197;54.282;10.078;2023-06-14T14:31:36;7.07;;;3.17;;
20073;SDS011;10197;54.282;10.078;2023-06-14T14:34:03;3.08;;;2.60;;
20073;SDS011;10197;54.282;10.078;2023-06-14T14:36:30;8.13;;;3.30;;
20073;SDS011;10197;54.282;10.078;2023-06-14T14:38:59;4.78;;;3.08;;
20073;SDS011;10197;54.282;10.078;2023-06-14T14:41:27;6.50;;;3.35;;
20073;SDS011;10197;54.282;10.078;2023-06-14T14:43:54;5.07;;;2.78;;
20073;SDS011;10197;54.282;10.078;2023-06-14T14:46:21;6.57;;;3.80;;